sensor_id;sensor_type;location;lat;lon;timestamp;pressure;altitude;pressure_sealevel;temperature;humidity
44914;BME280;30650;52.206;20.924;2022-10-23T00:00:05;100571.00;;;14.92;74.20
44914;BME280;30650;52.206;20.924;2022-10-23T00:01:23;100566.25;;;14.90;74.27
44914;BME280;30650;52.206;20.924;2022-10-23T00:02:21;100564.51;;;14.91;74.36
44914;BME280;30650;52.206;20.924;2022-10-23T00:03:18;100569.33;;;14.88;74.45
44914;BME280;30650;52.206;20.924;2022-10-23T00:04:17;100573.19;;;14.90;74.51
44914;BME280;30650;52.206;20.924;2022-10-23T00:05:15;100571.44;;;14.90;74.48
44914;BME280;30650;52.206;20.924;2022-10-23T00:06:13;100571.41;;;14.93;74.43
44914;BME280;30650;52.206;20.924;2022-10-23T00:07:10;100570.62;;;14.87;74.61
44914;BME280;30650;52.206;20.924;2022-10-23T00:08:07;100570.66;;;14.84;74.80
44914;BME280;30650;52.206;20.924;2022-10-23T00:09:06;100570.18;;;14.87;74.82
44914;BME280;30650;52.206;20.924;2022-10-23T00:10:04;100575.81;;;14.87;74.78
44914;BME280;30650;52.206;20.924;2022-10-23T00:11:11;100572.37;;;14.86;74.82
44914;BME280;30650;52.206;20.924;2022-10-23T00:12:05;100574.11;;;14.86;74.96
44914;BME280;30650;52.206;20.924;2022-10-23T00:13:01;100573.59;;;14.91;74.81
44914;BME280;30650;52.206;20.924;2022-10-23T00:13:59;100573.22;;;14.88;74.73
44914;BME280;30650;52.206;20.924;2022-10-23T00:14:57;100571.92;;;14.87;74.87
44914;BME280;30650;52.206;20.924;2022-10-23T00:15:53;100573.25;;;14.84;74.94
44914;BME280;30650;52.206;20.924;2022-10-23T00:16:50;100573.66;;;14.86;75.01
44914;BME280;30650;52.206;20.924;2022-10-23T00:17:47;100576.27;;;14.86;75.01
44914;BME280;30650;52.206;20.924;2022-10-23T00:18:44;100577.59;;;14.83;75.14
44914;BME280;30650;52.206;20.924;2022-10-23T00:19:40;100576.27;;;14.86;75.22
44914;BME280;30650;52.206;20.924;2022-10-23T00:20:37;100582.27;;;14.90;75.03
44914;BME280;30650;52.206;20.924;2022-10-23T00:21:33;100579.23;;;14.90;75.03
44914;BME280;30650;52.206;20.924;2022-10-23T00:22:30;100580.53;;;14.92;74.95
44914;BME280;30650;52.206;20.924;2022-10-23T00:23:29;100581.83;;;14.90;75.05
44914;BME280;30650;52.206;20.924;2022-10-23T00:24:26;100584.02;;;14.89;75.03
44914;BME280;30650;52.206;20.924;2022-10-23T00:25:23;100587.05;;;14.89;75.15
44914;BME280;30650;52.206;20.924;2022-10-23T00:26:19;100587.91;;;14.89;75.25
44914;BME280;30650;52.206;20.924;2022-10-23T00:27:16;100587.43;;;14.91;75.21
44914;BME280;30650;52.206;20.924;2022-10-23T00:28:13;100589.55;;;14.97;75.03
44914;BME280;30650;52.206;20.924;2022-10-23T00:29:10;100584.77;;;14.98;74.98
44914;BME280;30650;52.206;20.924;2022-10-23T00:30:07;100584.36;;;14.95;75.06
44914;BME280;30650;52.206;20.924;2022-10-23T00:31:05;100587.42;;;14.93;75.17
44914;BME280;30650;52.206;20.924;2022-10-23T00:32:01;100590.91;;;14.92;75.26
44914;BME280;30650;52.206;20.924;2022-10-23T00:32:58;100595.19;;;14.94;75.25
44914;BME280;30650;52.206;20.924;2022-10-23T00:33:54;100597.30;;;15.00;75.17
44914;BME280;30650;52.206;20.924;2022-10-23T00:34:51;100594.70;;;15.00;75.15
44914;BME280;30650;52.206;20.924;2022-10-23T00:35:47;100598.53;;;15.03;75.12
44914;BME280;30650;52.206;20.924;2022-10-23T00:36:44;100598.97;;;15.04;75.09
44914;BME280;30650;52.206;20.924;2022-10-23T00:37:40;100602.02;;;15.02;75.11
44914;BME280;30650;52.206;20.924;2022-10-23T00:38:37;100595.15;;;14.98;75.28
44914;BME280;30650;52.206;20.924;2022-10-23T00:39:34;100603.34;;;15.00;75.34
44914;BME280;30650;52.206;20.924;2022-10-23T00:40:31;100598.53;;;15.03;75.32
44914;BME280;30650;52.206;20.924;2022-10-23T00:41:29;100598.16;;;15.00;75.39
44914;BME280;30650;52.206;20.924;2022-10-23T00:42:27;100604.98;;;15.06;75.32
44914;BME280;30650;52.206;20.924;2022-10-23T00:43:26;100604.98;;;15.07;75.16
44914;BME280;30650;52.206;20.924;2022-10-23T00:45:30;100604.13;;;15.07;75.23
44914;BME280;30650;52.206;20.924;2022-10-23T00:46:28;100599.42;;;15.02;75.29
44914;BME280;30650;52.206;20.924;2022-10-23T00:47:25;100607.95;;;15.10;75.28
44914;BME280;30650;52.206;20.924;2022-10-23T00:48:22;100609.33;;;15.07;75.29
44914;BME280;30650;52.206;20.924;2022-10-23T00:49:23;100608.88;;;15.06;75.40
44914;BME280;30650;52.206;20.924;2022-10-23T00:50:23;100607.17;;;15.05;75.45
44914;BME280;30650;52.206;20.924;2022-10-23T00:51:20;100610.25;;;15.01;75.62
44914;BME280;30650;52.206;20.924;2022-10-23T00:52:17;100608.91;;;15.03;75.65
44914;BME280;30650;52.206;20.924;2022-10-23T00:53:14;100607.20;;;15.02;75.61
44914;BME280;30650;52.206;20.924;2022-10-23T00:54:13;100610.22;;;15.03;75.79
44914;BME280;30650;52.206;20.924;2022-10-23T00:55:11;100614.07;;;15.07;75.63
44914;BME280;30650;52.206;20.924;2022-10-23T00:56:08;100607.65;;;15.01;75.66
44914;BME280;30650;52.206;20.924;2022-10-23T00:57:08;100618.07;;;15.00;75.95
44914;BME280;30650;52.206;20.924;2022-10-23T00:58:08;100608.02;;;15.05;75.84
44914;BME280;30650;52.206;20.924;2022-10-23T00:59:06;100615.38;;;15.07;75.66
44914;BME280;30650;52.206;20.924;2022-10-23T01:00:04;100608.88;;;15.07;75.63
44914;BME280;30650;52.206;20.924;2022-10-23T01:01:01;100618.83;;;15.06;75.74
44914;BME280;30650;52.206;20.924;2022-10-23T01:01:58;100618.34;;;15.10;75.68
44914;BME280;30650;52.206;20.924;2022-10-23T01:02:56;100622.23;;;15.10;75.59
44914;BME280;30650;52.206;20.924;2022-10-23T01:03:53;100624.42;;;15.10;75.58
44914;BME280;30650;52.206;20.924;2022-10-23T01:04:49;100621.39;;;15.11;75.59
44914;BME280;30650;52.206;20.924;2022-10-23T01:08:49;100626.30;;;14.98;76.08
44914;BME280;30650;52.206;20.924;2022-10-23T01:09:57;100626.69;;;15.02;76.02
44914;BME280;30650;52.206;20.924;2022-10-23T01:11:19;100625.83;;;15.01;75.91
44914;BME280;30650;52.206;20.924;2022-10-23T01:12:44;100628.08;;;14.95;76.18
44914;BME280;30650;52.206;20.924;2022-10-23T01:16:14;100630.06;;;15.08;75.82
44914;BME280;30650;52.206;20.924;2022-10-23T01:20:19;100634.37;;;15.11;75.77
44914;BME280;30650;52.206;20.924;2022-10-23T01:21:33;100635.63;;;15.12;75.70
44914;BME280;30650;52.206;20.924;2022-10-23T01:24:29;100631.39;;;15.07;75.77
44914;BME280;30650;52.206;20.924;2022-10-23T01:26:07;100630.03;;;15.10;75.74
44914;BME280;30650;52.206;20.924;2022-10-23T01:27:20;100633.52;;;15.09;75.68
44914;BME280;30650;52.206;20.924;2022-10-23T01:28:24;100632.63;;;15.11;75.67
44914;BME280;30650;52.206;20.924;2022-10-23T01:30:32;100633.06;;;15.11;75.73
44914;BME280;30650;52.206;20.924;2022-10-23T01:31:48;100627.91;;;15.08;75.77
44914;BME280;30650;52.206;20.924;2022-10-23T01:33:58;100632.63;;;15.10;75.73
44914;BME280;30650;52.206;20.924;2022-10-23T01:35:02;100634.34;;;15.12;75.65
44914;BME280;30650;52.206;20.924;2022-10-23T01:36:08;100629.99;;;15.14;75.55
44914;BME280;30650;52.206;20.924;2022-10-23T01:37:10;100629.62;;;15.10;75.54
44914;BME280;30650;52.206;20.924;2022-10-23T01:38:11;100638.70;;;15.09;75.74
44914;BME280;30650;52.206;20.924;2022-10-23T01:39:17;100633.48;;;15.12;75.63
44914;BME280;30650;52.206;20.924;2022-10-23T01:40:28;100631.33;;;15.11;75.66
44914;BME280;30650;52.206;20.924;2022-10-23T01:41:43;100632.18;;;15.12;75.57
44914;BME280;30650;52.206;20.924;2022-10-23T01:42:49;100636.08;;;15.12;75.52
44914;BME280;30650;52.206;20.924;2022-10-23T01:44:03;100635.63;;;15.12;75.50
44914;BME280;30650;52.206;20.924;2022-10-23T01:45:05;100638.27;;;15.11;75.44
44914;BME280;30650;52.206;20.924;2022-10-23T01:46:06;100633.96;;;15.08;75.60
44914;BME280;30650;52.206;20.924;2022-10-23T01:47:06;100639.59;;;15.06;75.74
44914;BME280;30650;52.206;20.924;2022-10-23T01:48:06;100640.86;;;15.11;75.62
44914;BME280;30650;52.206;20.924;2022-10-23T01:49:08;100640.93;;;15.05;75.77
44914;BME280;30650;52.206;20.924;2022-10-23T01:50:06;100639.59;;;15.08;75.77
44914;BME280;30650;52.206;20.924;2022-10-23T01:51:07;100643.48;;;15.08;75.74
44914;BME280;30650;52.206;20.924;2022-10-23T01:52:07;100637.89;;;15.05;75.84
44914;BME280;30650;52.206;20.924;2022-10-23T01:53:05;100637.89;;;15.05;75.84
44914;BME280;30650;52.206;20.924;2022-10-23T01:54:04;100638.33;;;15.05;75.84
44914;BME280;30650;52.206;20.924;2022-10-23T01:55:04;100639.19;;;15.07;75.77
44914;BME280;30650;52.206;20.924;2022-10-23T01:56:03;100644.75;;;15.09;75.75
44914;BME280;30650;52.206;20.924;2022-10-23T01:57:03;100639.08;;;15.13;75.50
44914;BME280;30650;52.206;20.924;2022-10-23T01:58:03;100645.12;;;15.13;75.46
44914;BME280;30650;52.206;20.924;2022-10-23T01:59:07;100637.34;;;15.15;75.37
44914;BME280;30650;52.206;20.924;2022-10-23T02:00:07;100636.01;;;15.16;75.28
44914;BME280;30650;52.206;20.924;2022-10-23T02:01:06;100636.86;;;15.18;75.15
44914;BME280;30650;52.206;20.924;2022-10-23T02:02:03;100635.91;;;15.24;74.85
44914;BME280;30650;52.206;20.924;2022-10-23T02:03:01;100632.00;;;15.24;74.72
44914;BME280;30650;52.206;20.924;2022-10-23T02:04:00;100640.24;;;15.24;74.75
44914;BME280;30650;52.206;20.924;2022-10-23T02:06:03;100648.10;;;15.19;74.91
44914;BME280;30650;52.206;20.924;2022-10-23T02:07:00;100636.48;;;15.13;75.09
44914;BME280;30650;52.206;20.924;2022-10-23T02:07:57;100643.02;;;15.11;75.21
44914;BME280;30650;52.206;20.924;2022-10-23T02:08:55;100646.43;;;15.13;75.08
44914;BME280;30650;52.206;20.924;2022-10-23T02:09:52;100641.75;;;15.08;75.18
44914;BME280;30650;52.206;20.924;2022-10-23T02:12:12;100647.77;;;15.12;75.09
44914;BME280;30650;52.206;20.924;2022-10-23T02:13:16;100641.75;;;15.08;75.12
44914;BME280;30650;52.206;20.924;2022-10-23T02:14:25;100646.98;;;15.07;75.20
44914;BME280;30650;52.206;20.924;2022-10-23T02:15:28;100652.17;;;15.07;75.17
44914;BME280;30650;52.206;20.924;2022-10-23T02:16:51;100650.39;;;15.10;74.96
44914;BME280;30650;52.206;20.924;2022-10-23T02:19:24;100656.09;;;15.02;75.32
44914;BME280;30650;52.206;20.924;2022-10-23T02:20:38;100654.36;;;15.03;75.36
44914;BME280;30650;52.206;20.924;2022-10-23T02:22:12;100661.86;;;14.92;75.78
44914;BME280;30650;52.206;20.924;2022-10-23T02:23:38;100664.42;;;14.95;75.79
44914;BME280;30650;52.206;20.924;2022-10-23T02:27:09;100663.06;;;15.00;75.62
44914;BME280;30650;52.206;20.924;2022-10-23T02:28:09;100660.84;;;15.03;75.52
44914;BME280;30650;52.206;20.924;2022-10-23T02:29:17;100665.19;;;15.02;75.52
44914;BME280;30650;52.206;20.924;2022-10-23T02:30:26;100666.92;;;15.02;75.46
44914;BME280;30650;52.206;20.924;2022-10-23T02:31:24;100672.59;;;15.00;75.72
44914;BME280;30650;52.206;20.924;2022-10-23T02:32:23;100674.72;;;15.02;75.58
44914;BME280;30650;52.206;20.924;2022-10-23T02:33:22;100670.44;;;14.98;75.60
44914;BME280;30650;52.206;20.924;2022-10-23T02:34:22;100673.92;;;14.95;75.79
44914;BME280;30650;52.206;20.924;2022-10-23T02:35:20;100673.52;;;14.95;75.73
44914;BME280;30650;52.206;20.924;2022-10-23T02:36:19;100671.73;;;14.98;75.63
44914;BME280;30650;52.206;20.924;2022-10-23T02:37:15;100668.23;;;15.03;75.47
44914;BME280;30650;52.206;20.924;2022-10-23T02:38:38;100675.58;;;15.04;75.46
44914;BME280;30650;52.206;20.924;2022-10-23T02:39:37;100672.50;;;15.06;75.33
44914;BME280;30650;52.206;20.924;2022-10-23T02:40:38;100678.61;;;15.03;75.32
44914;BME280;30650;52.206;20.924;2022-10-23T02:41:46;100673.89;;;15.00;75.41
44914;BME280;30650;52.206;20.924;2022-10-23T02:43:02;100665.19;;;15.04;75.24
44914;BME280;30650;52.206;20.924;2022-10-23T02:44:17;100669.48;;;15.05;75.07
44914;BME280;30650;52.206;20.924;2022-10-23T02:49:11;100665.28;;;14.94;74.76
44914;BME280;30650;52.206;20.924;2022-10-23T02:52:15;100665.76;;;14.91;74.57
44914;BME280;30650;52.206;20.924;2022-10-23T02:55:02;100666.32;;;14.80;74.58
44914;BME280;30650;52.206;20.924;2022-10-23T02:56:27;100662.10;;;14.71;74.90
44914;BME280;30650;52.206;20.924;2022-10-23T02:57:45;100663.48;;;14.63;75.08
44914;BME280;30650;52.206;20.924;2022-10-23T03:00:09;100666.63;;;14.49;75.47
44914;BME280;30650;52.206;20.924;2022-10-23T03:01:10;100667.53;;;14.43;75.77
44914;BME280;30650;52.206;20.924;2022-10-23T03:02:20;100667.14;;;14.41;75.73
44914;BME280;30650;52.206;20.924;2022-10-23T03:03:29;100658.55;;;14.34;76.07
44914;BME280;30650;52.206;20.924;2022-10-23T03:04:28;100659.91;;;14.30;76.00
44914;BME280;30650;52.206;20.924;2022-10-23T03:05:31;100661.66;;;14.24;76.29
44914;BME280;30650;52.206;20.924;2022-10-23T03:06:32;100668.17;;;14.23;76.37
44914;BME280;30650;52.206;20.924;2022-10-23T03:07:28;100668.17;;;14.21;76.50
44914;BME280;30650;52.206;20.924;2022-10-23T03:08:25;100659.53;;;14.22;76.60
44914;BME280;30650;52.206;20.924;2022-10-23T03:09:22;100664.70;;;14.24;76.78
44914;BME280;30650;52.206;20.924;2022-10-23T03:10:18;100665.11;;;14.25;76.76
44914;BME280;30650;52.206;20.924;2022-10-23T03:11:19;100665.97;;;14.27;76.69
44914;BME280;30650;52.206;20.924;2022-10-23T03:12:15;100661.20;;;14.30;76.67
44914;BME280;30650;52.206;20.924;2022-10-23T03:13:12;100660.70;;;14.33;76.55
44914;BME280;30650;52.206;20.924;2022-10-23T03:14:10;100655.96;;;14.33;76.76
44914;BME280;30650;52.206;20.924;2022-10-23T03:15:10;100664.59;;;14.35;76.82
44914;BME280;30650;52.206;20.924;2022-10-23T03:16:08;100663.30;;;14.33;77.06
44914;BME280;30650;52.206;20.924;2022-10-23T03:17:05;100669.34;;;14.35;77.03
44914;BME280;30650;52.206;20.924;2022-10-23T03:18:01;100670.20;;;14.37;77.02
44914;BME280;30650;52.206;20.924;2022-10-23T03:18:58;100676.27;;;14.35;77.19
44914;BME280;30650;52.206;20.924;2022-10-23T03:19:55;100682.28;;;14.37;77.26
44914;BME280;30650;52.206;20.924;2022-10-23T03:20:51;100674.51;;;14.38;77.28
44914;BME280;30650;52.206;20.924;2022-10-23T03:21:48;100678.84;;;14.36;77.36
44914;BME280;30650;52.206;20.924;2022-10-23T03:22:44;100681.41;;;14.41;77.32
44914;BME280;30650;52.206;20.924;2022-10-23T03:23:41;100673.13;;;14.46;77.13
44914;BME280;30650;52.206;20.924;2022-10-23T03:24:37;100679.19;;;14.50;76.91
44914;BME280;30650;52.206;20.924;2022-10-23T03:25:34;100680.02;;;14.53;76.78
44914;BME280;30650;52.206;20.924;2022-10-23T03:26:31;100680.02;;;14.53;76.80
44914;BME280;30650;52.206;20.924;2022-10-23T03:27:27;100678.25;;;14.57;76.55
44914;BME280;30650;52.206;20.924;2022-10-23T03:28:24;100678.69;;;14.56;76.39
44914;BME280;30650;52.206;20.924;2022-10-23T03:29:20;100681.31;;;14.53;76.47
44914;BME280;30650;52.206;20.924;2022-10-23T03:30:17;100682.20;;;14.52;76.54
44914;BME280;30650;52.206;20.924;2022-10-23T03:31:13;100683.44;;;14.55;76.55
44914;BME280;30650;52.206;20.924;2022-10-23T03:32:10;100683.41;;;14.58;76.40
44914;BME280;30650;52.206;20.924;2022-10-23T03:33:06;100678.25;;;14.57;76.33
44914;BME280;30650;52.206;20.924;2022-10-23T03:34:03;100682.56;;;14.58;76.23
44914;BME280;30650;52.206;20.924;2022-10-23T03:35:01;100682.92;;;14.66;76.06
44914;BME280;30650;52.206;20.924;2022-10-23T03:35:58;100681.17;;;14.65;75.89
44914;BME280;30650;52.206;20.924;2022-10-23T03:36:55;100685.08;;;14.67;75.81
44914;BME280;30650;52.206;20.924;2022-10-23T03:37:51;100688.94;;;14.70;75.67
44914;BME280;30650;52.206;20.924;2022-10-23T03:38:48;100684.58;;;14.74;75.55
44914;BME280;30650;52.206;20.924;2022-10-23T03:39:44;100686.75;;;14.69;75.59
44914;BME280;30650;52.206;20.924;2022-10-23T03:40:41;100691.09;;;14.70;75.63
44914;BME280;30650;52.206;20.924;2022-10-23T03:41:38;100686.73;;;14.74;75.41
44914;BME280;30650;52.206;20.924;2022-10-23T03:42:35;100684.10;;;14.76;75.06
44914;BME280;30650;52.206;20.924;2022-10-23T03:43:31;100687.14;;;14.75;75.07
44914;BME280;30650;52.206;20.924;2022-10-23T03:44:28;100683.69;;;14.73;74.97
44914;BME280;30650;52.206;20.924;2022-10-23T03:45:26;100688.94;;;14.70;75.03
44914;BME280;30650;52.206;20.924;2022-10-23T03:46:22;100693.69;;;14.69;75.09
44914;BME280;30650;52.206;20.924;2022-10-23T03:47:19;100693.25;;;14.71;74.96
44914;BME280;30650;52.206;20.924;2022-10-23T03:48:15;100696.28;;;14.70;75.06
44914;BME280;30650;52.206;20.924;2022-10-23T03:49:12;100697.55;;;14.72;75.01
44914;BME280;30650;52.206;20.924;2022-10-23T03:50:10;100702.74;;;14.72;75.19
44914;BME280;30650;52.206;20.924;2022-10-23T03:51:08;100692.33;;;14.75;75.05
44914;BME280;30650;52.206;20.924;2022-10-23T03:52:05;100698.35;;;14.79;74.96
44914;BME280;30650;52.206;20.924;2022-10-23T03:53:02;100704.81;;;14.80;74.92
44914;BME280;30650;52.206;20.924;2022-10-23T03:53:58;100702.19;;;14.83;74.85
44914;BME280;30650;52.206;20.924;2022-10-23T03:54:55;100706.96;;;14.81;74.76
44914;BME280;30650;52.206;20.924;2022-10-23T03:55:51;100701.83;;;14.78;74.99
44914;BME280;30650;52.206;20.924;2022-10-23T03:56:48;100710.47;;;14.77;75.09
44914;BME280;30650;52.206;20.924;2022-10-23T03:57:45;100708.30;;;14.79;75.04
44914;BME280;30650;52.206;20.924;2022-10-23T03:58:41;100713.05;;;14.81;74.97
44914;BME280;30650;52.206;20.924;2022-10-23T03:59:38;100714.78;;;14.79;75.03
44914;BME280;30650;52.206;20.924;2022-10-23T04:00:34;100710.42;;;14.83;74.92
44914;BME280;30650;52.206;20.924;2022-10-23T04:01:31;100712.55;;;14.86;74.83
44914;BME280;30650;52.206;20.924;2022-10-23T04:02:27;100717.73;;;14.86;74.68
44914;BME280;30650;52.206;20.924;2022-10-23T04:03:24;100716.82;;;14.90;74.62
44914;BME280;30650;52.206;20.924;2022-10-23T04:04:20;100716.38;;;14.91;74.50
44914;BME280;30650;52.206;20.924;2022-10-23T04:05:17;100723.78;;;14.87;74.53
44914;BME280;30650;52.206;20.924;2022-10-23T04:06:14;100723.78;;;14.87;74.68
44914;BME280;30650;52.206;20.924;2022-10-23T04:07:10;100729.00;;;14.84;74.67
44914;BME280;30650;52.206;20.924;2022-10-23T04:08:07;100729.00;;;14.85;74.69
44914;BME280;30650;52.206;20.924;2022-10-23T04:09:04;100731.59;;;14.84;74.64
44914;BME280;30650;52.206;20.924;2022-10-23T04:10:03;100730.73;;;14.83;74.87
44914;BME280;30650;52.206;20.924;2022-10-23T04:11:00;100725.96;;;14.84;74.51
44914;BME280;30650;52.206;20.924;2022-10-23T04:11:56;100732.06;;;14.80;74.66
44914;BME280;30650;52.206;20.924;2022-10-23T04:12:53;100733.42;;;14.77;74.65
44914;BME280;30650;52.206;20.924;2022-10-23T04:13:50;100726.98;;;14.71;74.85
44914;BME280;30650;52.206;20.924;2022-10-23T04:14:46;100730.88;;;14.71;74.94
44914;BME280;30650;52.206;20.924;2022-10-23T04:15:52;100735.21;;;14.70;74.98
44914;BME280;30650;52.206;20.924;2022-10-23T04:16:46;100734.73;;;14.73;74.89
44914;BME280;30650;52.206;20.924;2022-10-23T04:17:43;100732.62;;;14.70;74.72
44914;BME280;30650;52.206;20.924;2022-10-23T04:18:40;100730.91;;;14.68;74.86
44914;BME280;30650;52.206;20.924;2022-10-23T04:19:37;100734.84;;;14.63;74.63
44914;BME280;30650;52.206;20.924;2022-10-23T04:20:33;100730.95;;;14.62;74.81
44914;BME280;30650;52.206;20.924;2022-10-23T04:21:30;100737.02;;;14.61;74.79
44914;BME280;30650;52.206;20.924;2022-10-23T04:22:26;100732.25;;;14.63;74.64
44914;BME280;30650;52.206;20.924;2022-10-23T04:23:23;100732.71;;;14.58;74.58
44914;BME280;30650;52.206;20.924;2022-10-23T04:24:19;100736.63;;;14.57;74.62
44914;BME280;30650;52.206;20.924;2022-10-23T04:25:16;100736.26;;;14.48;74.69
44914;BME280;30650;52.206;20.924;2022-10-23T04:26:13;100734.53;;;14.52;74.82
44914;BME280;30650;52.206;20.924;2022-10-23T04:27:09;100735.33;;;14.55;74.51
44914;BME280;30650;52.206;20.924;2022-10-23T04:28:06;100740.13;;;14.53;74.46
44914;BME280;30650;52.206;20.924;2022-10-23T04:29:02;100738.81;;;14.54;74.41
44914;BME280;30650;52.206;20.924;2022-10-23T04:29:59;100742.73;;;14.53;74.47
44914;BME280;30650;52.206;20.924;2022-10-23T04:30:55;100739.25;;;14.54;74.46
44914;BME280;30650;52.206;20.924;2022-10-23T04:31:52;100746.98;;;14.58;74.15
44914;BME280;30650;52.206;20.924;2022-10-23T04:32:51;100737.46;;;14.59;74.06
44914;BME280;30650;52.206;20.924;2022-10-23T04:33:48;100742.63;;;14.63;74.11
44914;BME280;30650;52.206;20.924;2022-10-23T04:34:44;100744.73;;;14.70;73.83
44914;BME280;30650;52.206;20.924;2022-10-23T04:35:41;100745.61;;;14.66;73.63
44914;BME280;30650;52.206;20.924;2022-10-23T04:36:38;100740.91;;;14.61;73.98
44914;BME280;30650;52.206;20.924;2022-10-23T04:37:34;100739.59;;;14.64;73.86
44914;BME280;30650;52.206;20.924;2022-10-23T04:38:31;100740.89;;;14.64;73.84
44914;BME280;30650;52.206;20.924;2022-10-23T04:39:27;100740.06;;;14.60;73.97
44914;BME280;30650;52.206;20.924;2022-10-23T04:40:24;100749.16;;;14.57;73.91
44914;BME280;30650;52.206;20.924;2022-10-23T04:41:20;100745.66;;;14.61;73.99
44914;BME280;30650;52.206;20.924;2022-10-23T04:42:17;100744.81;;;14.61;73.77
44914;BME280;30650;52.206;20.924;2022-10-23T04:43:13;100744.78;;;14.62;73.87
44914;BME280;30650;52.206;20.924;2022-10-23T04:44:10;100741.80;;;14.60;73.75
44914;BME280;30650;52.206;20.924;2022-10-23T04:45:07;100746.57;;;14.57;73.82
44914;BME280;30650;52.206;20.924;2022-10-23T04:46:04;100747.48;;;14.53;73.74
44914;BME280;30650;52.206;20.924;2022-10-23T04:47:00;100744.45;;;14.47;73.89
44914;BME280;30650;52.206;20.924;2022-10-23T04:47:57;100746.63;;;14.46;74.16
44914;BME280;30650;52.206;20.924;2022-10-23T04:48:54;100749.25;;;14.45;74.03
44914;BME280;30650;52.206;20.924;2022-10-23T04:49:50;100754.46;;;14.42;74.08
44914;BME280;30650;52.206;20.924;2022-10-23T04:51:04;100750.13;;;14.42;74.03
44914;BME280;30650;52.206;20.924;2022-10-23T04:52:02;100752.28;;;14.43;73.94
44914;BME280;30650;52.206;20.924;2022-10-23T04:52:58;100753.20;;;14.37;74.05
44914;BME280;30650;52.206;20.924;2022-10-23T04:53:55;100754.92;;;14.38;74.13
44914;BME280;30650;52.206;20.924;2022-10-23T04:54:51;100752.75;;;14.41;73.91
44914;BME280;30650;52.206;20.924;2022-10-23T04:55:52;100750.56;;;14.42;73.81
44914;BME280;30650;52.206;20.924;2022-10-23T04:56:50;100745.36;;;14.43;73.73
44914;BME280;30650;52.206;20.924;2022-10-23T04:57:47;100744.05;;;14.43;73.46
44914;BME280;30650;52.206;20.924;2022-10-23T04:58:43;100744.50;;;14.44;73.33
44914;BME280;30650;52.206;20.924;2022-10-23T04:59:40;100750.98;;;14.43;73.24
44914;BME280;30650;52.206;20.924;2022-10-23T05:00:37;100749.27;;;14.42;73.14
44914;BME280;30650;52.206;20.924;2022-10-23T05:01:33;100754.05;;;14.41;72.86
44914;BME280;30650;52.206;20.924;2022-10-23T05:02:30;100752.78;;;14.33;73.13
44914;BME280;30650;52.206;20.924;2022-10-23T05:03:26;100750.19;;;14.33;72.97
44914;BME280;30650;52.206;20.924;2022-10-23T05:04:23;100760.17;;;14.29;73.02
44914;BME280;30650;52.206;20.924;2022-10-23T05:05:20;100757.19;;;14.27;72.94
44914;BME280;30650;52.206;20.924;2022-10-23T05:06:16;100762.37;;;14.22;73.08
44914;BME280;30650;52.206;20.924;2022-10-23T05:07:13;100766.34;;;14.16;73.38
44914;BME280;30650;52.206;20.924;2022-10-23T05:08:10;100766.80;;;14.09;73.83
44914;BME280;30650;52.206;20.924;2022-10-23T05:09:06;100766.40;;;14.04;74.10
44914;BME280;30650;52.206;20.924;2022-10-23T05:10:04;100764.70;;;14.04;74.07
44914;BME280;30650;52.206;20.924;2022-10-23T05:11:01;100766.42;;;14.02;74.07
44914;BME280;30650;52.206;20.924;2022-10-23T05:11:57;100763.83;;;14.02;74.07
44914;BME280;30650;52.206;20.924;2022-10-23T05:12:54;100768.99;;;14.04;74.03
44914;BME280;30650;52.206;20.924;2022-10-23T05:13:51;100764.71;;;14.01;74.17
44914;BME280;30650;52.206;20.924;2022-10-23T05:14:47;100770.33;;;13.99;74.34
44914;BME280;30650;52.206;20.924;2022-10-23T05:15:45;100768.16;;;14.02;74.27
44914;BME280;30650;52.206;20.924;2022-10-23T05:16:57;100766.86;;;14.02;74.29
44914;BME280;30650;52.206;20.924;2022-10-23T05:19:24;100770.75;;;14.02;74.14
44914;BME280;30650;52.206;20.924;2022-10-23T05:20:26;100772.48;;;13.99;74.22
44914;BME280;30650;52.206;20.924;2022-10-23T05:21:27;100777.67;;;14.01;74.16
44914;BME280;30650;52.206;20.924;2022-10-23T05:22:28;100777.69;;;13.98;74.35
44914;BME280;30650;52.206;20.924;2022-10-23T05:23:26;100780.70;;;13.99;74.26
44914;BME280;30650;52.206;20.924;2022-10-23T05:24:25;100774.68;;;13.92;74.44
44914;BME280;30650;52.206;20.924;2022-10-23T05:25:22;100772.55;;;13.90;74.56
44914;BME280;30650;52.206;20.924;2022-10-23T05:26:19;100780.33;;;13.90;74.50
44914;BME280;30650;52.206;20.924;2022-10-23T05:27:17;100779.02;;;13.89;74.49
44914;BME280;30650;52.206;20.924;2022-10-23T05:28:14;100783.78;;;13.88;74.46
44914;BME280;30650;52.206;20.924;2022-10-23T05:29:10;100786.83;;;13.84;74.50
44914;BME280;30650;52.206;20.924;2022-10-23T05:30:08;100782.95;;;13.86;74.46
44914;BME280;30650;52.206;20.924;2022-10-23T05:31:05;100782.95;;;13.86;74.52
44914;BME280;30650;52.206;20.924;2022-10-23T05:32:04;100786.39;;;13.85;74.41
44914;BME280;30650;52.206;20.924;2022-10-23T05:33:01;100786.39;;;13.85;74.49
44914;BME280;30650;52.206;20.924;2022-10-23T05:33:59;100785.53;;;13.84;74.56
44914;BME280;30650;52.206;20.924;2022-10-23T05:34:56;100782.08;;;13.87;74.37
44914;BME280;30650;52.206;20.924;2022-10-23T05:35:53;100781.66;;;13.86;74.24
44914;BME280;30650;52.206;20.924;2022-10-23T05:36:51;100785.06;;;13.89;74.19
44914;BME280;30650;52.206;20.924;2022-10-23T05:37:50;100776.03;;;13.86;74.12